createdAt,value
2022-07-30T00:08:26.416Z,17.89
2022-07-30T00:18:28.280Z,17.87
2022-07-30T00:28:30.202Z,17.84
2022-07-30T00:38:32.386Z,17.78
2022-07-30T00:48:34.305Z,17.72
2022-07-30T00:58:36.221Z,17.65
2022-07-30T01:08:38.273Z,17.58
2022-07-30T01:19:01.111Z,17.54
2022-07-30T01:29:03.365Z,17.47
2022-07-30T01:39:05.842Z,17.39
2022-07-30T01:49:10.664Z,17.33
2022-07-30T01:59:16.596Z,17.20
2022-07-30T02:09:27.032Z,17.11
2022-07-30T02:19:36.992Z,17.07
2022-07-30T02:29:46.333Z,16.95
2022-07-30T02:39:51.836Z,16.52
2022-07-30T02:49:55.419Z,16.17
2022-07-30T02:59:59.370Z,15.95
2022-07-30T03:10:03.025Z,15.39
2022-07-30T03:20:09.997Z,15.02
2022-07-30T03:30:12.785Z,15.02
2022-07-30T03:40:16.058Z,14.97
2022-07-30T03:50:17.998Z,14.93
2022-07-30T04:00:21.356Z,15.02
2022-07-30T04:10:25.332Z,15.21
2022-07-30T04:20:41.274Z,15.27
2022-07-30T04:30:43.437Z,15.43
2022-07-30T04:40:46.038Z,15.50
2022-07-30T04:50:50.257Z,15.73
2022-07-30T05:00:55.508Z,15.96
2022-07-30T05:11:01.734Z,16.39
2022-07-30T05:21:04.504Z,17.00
2022-07-30T05:31:12.478Z,17.11
2022-07-30T05:41:19.055Z,16.99
2022-07-30T05:51:47.605Z,17.06
2022-07-30T06:01:53.178Z,16.94
2022-07-30T06:12:00.156Z,16.56
2022-07-30T06:22:06.698Z,16.63
2022-07-30T06:32:14.006Z,16.67
2022-07-30T06:42:16.265Z,16.33
2022-07-30T06:52:38.044Z,16.20
2022-07-30T07:02:42.727Z,16.40
2022-07-30T07:12:47.570Z,16.71
2022-07-30T07:22:52.057Z,16.99
2022-07-30T07:32:55.395Z,17.20
2022-07-30T07:42:58.795Z,17.54
2022-07-30T07:53:01.304Z,18.97
2022-07-30T08:03:03.719Z,19.74
2022-07-30T08:13:06.322Z,19.68
2022-07-30T08:23:28.265Z,20.10
2022-07-30T08:33:30.303Z,20.66
2022-07-30T08:43:35.945Z,20.76
2022-07-30T08:53:39.194Z,20.38
2022-07-30T09:03:44.168Z,20.35
2022-07-30T09:13:47.205Z,20.46
2022-07-30T09:24:03.773Z,20.87
2022-07-30T09:34:40.157Z,21.49
2022-07-30T09:44:42.342Z,21.77
2022-07-30T09:54:52.896Z,22.02
2022-07-30T10:05:14.403Z,22.29
2022-07-30T10:15:20.768Z,22.05
2022-07-30T10:25:28.107Z,21.57
2022-07-30T10:35:49.616Z,21.06
2022-07-30T10:46:36.634Z,20.89
2022-07-30T10:56:38.839Z,20.28
2022-07-30T11:06:40.913Z,19.77
2022-07-30T11:16:58.639Z,19.71
2022-07-30T11:27:01.875Z,19.97
2022-07-30T11:37:18.336Z,20.52
2022-07-30T11:47:28.296Z,20.82
2022-07-30T11:57:43.858Z,20.97
2022-07-30T12:07:46.030Z,21.08
2022-07-30T12:17:51.370Z,21.09
2022-07-30T12:27:59.505Z,20.61
2022-07-30T12:38:07.148Z,20.14
2022-07-30T12:48:12.859Z,19.98
2022-07-30T12:58:17.676Z,20.09
2022-07-30T13:08:20.014Z,19.54
2022-07-30T13:18:24.279Z,19.42
2022-07-30T13:28:26.555Z,20.47
2022-07-30T13:38:28.993Z,21.29
2022-07-30T13:48:32.632Z,21.85
2022-07-30T13:58:36.217Z,22.48
2022-07-30T14:08:39.182Z,23.21
2022-07-30T14:18:42.829Z,23.51
2022-07-30T14:28:44.861Z,23.29
2022-07-30T14:38:46.817Z,23.50
2022-07-30T14:48:50.141Z,23.32
2022-07-30T14:58:53.441Z,22.31
2022-07-30T15:08:55.630Z,21.58
2022-07-30T15:18:59.010Z,21.14
2022-07-30T15:29:01.042Z,20.66
2022-07-30T15:39:02.867Z,20.00
2022-07-30T15:49:05.111Z,19.70
2022-07-30T15:59:07.409Z,19.58
2022-07-30T16:09:09.497Z,19.41
2022-07-30T16:19:12.274Z,19.24
2022-07-30T16:29:14.409Z,19.26
2022-07-30T16:39:16.754Z,19.22
2022-07-30T16:49:19.689Z,19.23
2022-07-30T16:59:22.657Z,19.14
2022-07-30T17:09:24.873Z,19.18
2022-07-30T17:19:27.295Z,19.28
2022-07-30T17:29:29.876Z,19.34
2022-07-30T17:40:26.335Z,19.48
2022-07-30T17:49:55.136Z,19.52
2022-07-30T17:59:57.111Z,19.37
2022-07-30T18:09:59.439Z,19.30
2022-07-30T18:20:01.542Z,19.26
2022-07-30T18:30:04.341Z,19.09
2022-07-30T18:40:07.668Z,18.88
2022-07-30T18:50:11.726Z,18.85
2022-07-30T19:00:34.342Z,18.84
2022-07-30T19:10:37.588Z,18.78
2022-07-30T19:20:39.750Z,18.70
2022-07-30T19:30:41.856Z,18.74
2022-07-30T19:40:43.962Z,18.75
2022-07-30T19:50:46.060Z,18.70
2022-07-30T20:00:49.772Z,18.54
2022-07-30T20:10:52.155Z,18.40
2022-07-30T20:20:55.120Z,18.05
2022-07-30T20:31:00.629Z,17.91
2022-07-30T20:41:03.687Z,17.82
2022-07-30T20:51:13.259Z,17.73
2022-07-30T21:01:17.521Z,17.65
2022-07-30T21:11:20.217Z,17.42
2022-07-30T21:21:28.688Z,17.38
2022-07-30T21:32:01.963Z,17.35
2022-07-30T21:42:03.812Z,17.22
2022-07-30T21:52:08.671Z,17.26
2022-07-30T22:02:15.886Z,17.35
2022-07-30T22:12:33.077Z,17.46
2022-07-30T22:22:37.732Z,17.39
2022-07-30T22:32:40.263Z,17.39
2022-07-30T22:42:49.525Z,17.43
2022-07-30T22:53:01.320Z,17.50
2022-07-30T23:03:14.816Z,17.52
2022-07-30T23:13:18.931Z,17.43
2022-07-30T23:23:20.864Z,17.44
2022-07-30T23:33:22.768Z,17.50
2022-07-30T23:43:24.643Z,17.53
2022-07-30T23:53:26.785Z,17.38
